Flight Track Log - Related Links

Times and Time Zones

All times are in EDT time to prevent confusion due to time zone crossing. See the UPS353 flight status page for this flight to view local times or setup timezone preferences in your user account.

Time Position Orientation Groundspeed Altitude Reporting Facility
EDT Latitude Longitude Course Direction KTS MPH feet Rate Location/Type
Mon 04:29:24 AM 23.4208 -83.3203 44° Northeast 458 527 38,900  Level Miami Center
Mon 04:30:23 AM 23.5236 -83.2125 44° Northeast 476 548 38,900  Level Miami Center
Mon 04:31:22 AM 23.6242 -83.1019 45° Northeast 497 572 38,900  Level Miami Center
Mon 04:32:23 AM 23.7231 -82.9867 47° Northeast 507 583 38,900  Level Miami Center
Mon 04:33:24 AM 23.8256 -82.8758 45° Northeast 512 589 38,900  Level Miami Center
Mon 04:34:21 AM 23.9242 -82.7603 47° Northeast 517 595 38,900  Level Miami Center
Mon 04:35:21 AM 24.0244 -82.6469 46° Northeast 517 595 38,900  Level Miami Center
Mon 04:36:21 AM 24.1269 -82.5356 45° Northeast 517 595 38,900  Level Miami Center
Mon 04:37:21 AM 24.2361 -82.4108 46° Northeast 517 595 38,900  Level Miami Center
Mon 04:38:21 AM 24.3294 -82.3078 45° Northeast 517 595 38,900  Level Miami Center
Mon 04:39:21 AM 24.4339 -82.1939 45° Northeast 522 601 38,900 -300 Level Miami Center
Mon 04:40:21 AM 24.5342 -82.0772 47° Northeast 522 601 38,300 -1,450 Descending Miami Center
Mon 04:41:21 AM 24.6319 -81.9647 46° Northeast 517 595 36,000 -2,628 Descending Miami Center
Mon 04:42:22 AM 24.7444 -81.8483 43° Northeast 511 588 33,000 -3,000 Descending Miami Center
Mon 04:43:23 AM 24.8425 -81.7308 47° Northeast 511 588 29,900 -2,678 Descending Miami Center
Mon 04:44:23 AM 24.9250 -81.6333 47° Northeast 499 574 27,600 -2,521 Descending Miami Center
Mon 04:45:22 AM 25.0181 -81.5294 45° Northeast 484 557 24,900 -2,650 Descending Miami Center
Mon 04:46:23 AM 25.1069 -81.4250 47° Northeast 473 544 22,300 -2,672 Descending Miami Center
Mon 04:47:21 AM 25.1956 -81.3250 46° Northeast 461 531 19,600 -2,644 Descending Miami Center
Mon 04:48:21 AM 25.2781 -81.2269 47° Northeast 451 519 17,100 -2,600 Descending Miami Center
Mon 04:49:21 AM 25.3600 -81.1356 45° Northeast 435 501 14,400 -2,886 Descending Miami Center
Mon 04:49:40 AM 25.3903 -81.0953 50° Northeast 418 481 13,300 -2,500 Descending Miami Center
Mon 04:50:21 AM 25.4400 -81.0442 43° Northeast 423 487 11,900 -2,419 Descending Miami Center
Mon 04:50:42 AM 25.4703 -81.0039 50° Northeast 398 458 10,800 -1,600 Descending Miami Center
Mon 04:51:21 AM 25.5133 -80.9569 45° Northeast 399 459 10,300 -689 Descending Miami Center
Mon 04:51:43 AM 25.5394 -80.9233 49° Northeast 339 390 10,100 -300 Descending Miami Center
Mon 04:52:21 AM 25.5700 -80.8758 54° Northeast 367 422 10,000 -508 Descending Miami Center
Mon 04:52:42 AM 25.5917 -80.8422 54° Northeast 290 334 9,600 -1,200 Descending Miami Center
Mon 04:53:21 AM 25.6319 -80.8206 26° Northeast 328 377 8,800 -1,525 Descending Miami Center
Mon 04:53:41 AM 25.6617 -80.8053 25° Northeast 286 329 8,100 -1,475 Descending Miami Center
Mon 04:54:22 AM 25.7019 -80.7836 26° Northeast 283 326 7,300 -1,279 Descending Miami Center
Mon 04:54:42 AM 25.7217 -80.7497 57° Northeast 268 308 6,800 -1,000 Descending Miami Center
Mon 04:55:22 AM 25.7456 -80.7158 52° Northeast 271 312 6,300 -787 Descending Miami Center
Mon 04:55:43 AM 25.7608 -80.6864 60° Northeast 234 269 6,000 -915 Descending Miami Center
Mon 04:56:21 AM 25.7825 -80.6547 53° Northeast 252 290 5,400 -1,100 Descending Miami Center
Mon 04:56:43 AM 25.7856 -80.6225 84° East 231 266 4,900 -1,048 Descending Miami Center
Mon 04:57:24 AM 25.7906 -80.5833 82° East 224 258 4,300 -1,082 Descending Miami Center
Mon 04:57:44 AM 25.7872 -80.5511 97° East 230 265 3,800 -1,241 Descending Miami Center
Mon 04:58:22 AM 25.7944 -80.5144 78° East 224 258 3,100 -800 Descending Miami Center
Mon 04:58:44 AM 25.7911 -80.4842 97° East 189 217 3,000 -500 Descending Miami Center
Mon 04:59:22 AM 25.7958 -80.4544 80° East 208 239 2,600 -787 Descending Miami Center
Mon 04:59:45 AM 25.7944 -80.4289 93° East 180 207 2,200 -907 Descending Miami Center
Mon 05:00:48 AM 25.7936 -80.3781 91° East 140 161 1,300 -780 Descending Miami Center
Mon 05:01:48 AM 25.7967 -80.3344 86° East 140 161 600 -700 Descending Miami Center
Mon 05:03:00 AM 25.7954 -80.2901 77° East  Level Estimated
Mon 05:10:00 AM 25.7954 -80.2901 77° East  Level Estimated

Login

Don't have an account? Register now (free) for customized features, flight alerts, and more!